sensor_id;sensor_type;location;lat;lon;timestamp;temperature;humidity
240;DHT22;104;53.590;10.004;2022-08-19T00:01:43;21.20;96.80
240;DHT22;104;53.590;10.004;2022-08-19T00:04:12;21.20;96.80
240;DHT22;104;53.590;10.004;2022-08-19T00:06:43;21.20;96.80
240;DHT22;104;53.590;10.004;2022-08-19T00:09:16;21.20;96.80
240;DHT22;104;53.590;10.004;2022-08-19T00:11:44;21.30;96.80
240;DHT22;104;53.590;10.004;2022-08-19T00:14:12;21.20;96.80
240;DHT22;104;53.590;10.004;2022-08-19T00:16:41;21.20;96.80
240;DHT22;104;53.590;10.004;2022-08-19T00:19:09;21.10;96.80
240;DHT22;104;53.590;10.004;2022-08-19T00:21:36;21.00;96.80
240;DHT22;104;53.590;10.004;2022-08-19T00:24:06;21.00;96.80
240;DHT22;104;53.590;10.004;2022-08-19T00:26:34;21.00;96.80
240;DHT22;104;53.590;10.004;2022-08-19T00:29:02;21.00;96.80
240;DHT22;104;53.590;10.004;2022-08-19T00:31:29;21.00;96.80
240;DHT22;104;53.590;10.004;2022-08-19T00:33:56;20.90;96.80
240;DHT22;104;53.590;10.004;2022-08-19T00:36:23;20.70;96.80
240;DHT22;104;53.590;10.004;2022-08-19T00:38:50;20.70;96.80
240;DHT22;104;53.590;10.004;2022-08-19T00:41:21;20.70;96.80
240;DHT22;104;53.590;10.004;2022-08-19T00:44:01;20.70;96.80
240;DHT22;104;53.590;10.004;2022-08-19T00:46:29;20.80;96.80
240;DHT22;104;53.590;10.004;2022-08-19T00:48:57;20.80;96.80
240;DHT22;104;53.590;10.004;2022-08-19T00:51:24;20.90;96.80
240;DHT22;104;53.590;10.004;2022-08-19T00:53:53;20.90;96.80
240;DHT22;104;53.590;10.004;2022-08-19T00:56:22;20.90;96.80
240;DHT22;104;53.590;10.004;2022-08-19T00:58:52;20.80;96.80
240;DHT22;104;53.590;10.004;2022-08-19T01:01:20;20.80;96.80
240;DHT22;104;53.590;10.004;2022-08-19T01:03:47;20.80;96.80
240;DHT22;104;53.590;10.004;2022-08-19T01:06:15;20.80;96.80
240;DHT22;104;53.590;10.004;2022-08-19T01:08:42;20.80;96.80
240;DHT22;104;53.590;10.004;2022-08-19T01:11:09;20.90;96.80
240;DHT22;104;53.590;10.004;2022-08-19T01:13:37;20.90;96.80
240;DHT22;104;53.590;10.004;2022-08-19T01:16:08;21.00;96.80
240;DHT22;104;53.590;10.004;2022-08-19T01:18:39;21.10;96.80
240;DHT22;104;53.590;10.004;2022-08-19T01:21:10;21.20;96.80
240;DHT22;104;53.590;10.004;2022-08-19T01:23:43;21.20;96.80
240;DHT22;104;53.590;10.004;2022-08-19T01:26:12;21.30;96.80
240;DHT22;104;53.590;10.004;2022-08-19T01:28:39;21.30;96.80
240;DHT22;104;53.590;10.004;2022-08-19T01:31:07;21.30;96.80
240;DHT22;104;53.590;10.004;2022-08-19T01:33:35;21.40;96.80
240;DHT22;104;53.590;10.004;2022-08-19T01:36:08;21.40;96.80
240;DHT22;104;53.590;10.004;2022-08-19T01:38:38;21.40;96.80
240;DHT22;104;53.590;10.004;2022-08-19T01:41:07;21.40;96.80
240;DHT22;104;53.590;10.004;2022-08-19T01:43:34;21.40;96.80
240;DHT22;104;53.590;10.004;2022-08-19T01:46:02;21.50;96.80
240;DHT22;104;53.590;10.004;2022-08-19T01:48:36;21.40;96.80
240;DHT22;104;53.590;10.004;2022-08-19T01:51:04;21.30;96.80
240;DHT22;104;53.590;10.004;2022-08-19T01:53:31;21.20;96.80
240;DHT22;104;53.590;10.004;2022-08-19T01:55:58;21.10;96.80
240;DHT22;104;53.590;10.004;2022-08-19T01:58:31;21.10;96.80
240;DHT22;104;53.590;10.004;2022-08-19T02:00:59;21.00;96.80
240;DHT22;104;53.590;10.004;2022-08-19T02:03:26;20.90;96.80
240;DHT22;104;53.590;10.004;2022-08-19T02:05:55;20.80;96.80
240;DHT22;104;53.590;10.004;2022-08-19T02:08:23;20.80;96.80
240;DHT22;104;53.590;10.004;2022-08-19T02:10:50;20.80;96.80
240;DHT22;104;53.590;10.004;2022-08-19T02:13:18;20.80;96.80
240;DHT22;104;53.590;10.004;2022-08-19T02:15:46;20.90;96.80
240;DHT22;104;53.590;10.004;2022-08-19T02:18:13;21.00;96.80
240;DHT22;104;53.590;10.004;2022-08-19T02:20:41;21.10;96.80
240;DHT22;104;53.590;10.004;2022-08-19T02:23:10;21.30;96.80
240;DHT22;104;53.590;10.004;2022-08-19T02:25:38;21.30;96.80
240;DHT22;104;53.590;10.004;2022-08-19T02:28:06;21.40;96.80
240;DHT22;104;53.590;10.004;2022-08-19T02:30:33;21.40;96.30
240;DHT22;104;53.590;10.004;2022-08-19T02:33:02;21.40;95.70
240;DHT22;104;53.590;10.004;2022-08-19T02:35:29;21.40;95.80
240;DHT22;104;53.590;10.004;2022-08-19T02:37:56;21.30;96.20
240;DHT22;104;53.590;10.004;2022-08-19T02:40:47;21.20;96.60
240;DHT22;104;53.590;10.004;2022-08-19T02:43:15;21.30;96.80
240;DHT22;104;53.590;10.004;2022-08-19T02:45:42;21.30;96.70
240;DHT22;104;53.590;10.004;2022-08-19T02:48:10;21.20;96.80
240;DHT22;104;53.590;10.004;2022-08-19T02:50:41;21.20;96.80
240;DHT22;104;53.590;10.004;2022-08-19T02:53:08;21.30;96.80
240;DHT22;104;53.590;10.004;2022-08-19T02:55:36;21.40;96.80
240;DHT22;104;53.590;10.004;2022-08-19T02:58:08;21.40;96.80
240;DHT22;104;53.590;10.004;2022-08-19T03:00:35;21.30;96.80
240;DHT22;104;53.590;10.004;2022-08-19T03:03:02;21.20;96.80
240;DHT22;104;53.590;10.004;2022-08-19T03:05:31;21.00;96.80
240;DHT22;104;53.590;10.004;2022-08-19T03:07:57;21.00;96.80
240;DHT22;104;53.590;10.004;2022-08-19T03:10:24;21.00;96.80
240;DHT22;104;53.590;10.004;2022-08-19T03:12:51;21.10;96.80
240;DHT22;104;53.590;10.004;2022-08-19T03:15:19;21.10;96.80
240;DHT22;104;53.590;10.004;2022-08-19T03:17:46;21.20;96.80
240;DHT22;104;53.590;10.004;2022-08-19T03:20:13;21.20;96.80
240;DHT22;104;53.590;10.004;2022-08-19T03:22:41;21.20;96.80
240;DHT22;104;53.590;10.004;2022-08-19T03:25:08;21.30;96.80
240;DHT22;104;53.590;10.004;2022-08-19T03:27:40;21.30;96.80
240;DHT22;104;53.590;10.004;2022-08-19T03:30:08;21.30;96.80
240;DHT22;104;53.590;10.004;2022-08-19T03:32:35;21.30;96.80
240;DHT22;104;53.590;10.004;2022-08-19T03:35:02;21.40;96.80
240;DHT22;104;53.590;10.004;2022-08-19T03:37:29;21.50;96.70
240;DHT22;104;53.590;10.004;2022-08-19T03:39:58;21.50;96.40
240;DHT22;104;53.590;10.004;2022-08-19T03:42:25;21.60;96.50
240;DHT22;104;53.590;10.004;2022-08-19T03:44:52;21.60;96.50
240;DHT22;104;53.590;10.004;2022-08-19T03:47:19;21.60;96.50
240;DHT22;104;53.590;10.004;2022-08-19T03:49:46;21.60;96.40
240;DHT22;104;53.590;10.004;2022-08-19T03:52:15;21.60;95.90
240;DHT22;104;53.590;10.004;2022-08-19T03:54:42;21.60;95.90
240;DHT22;104;53.590;10.004;2022-08-19T03:57:14;21.60;96.20
240;DHT22;104;53.590;10.004;2022-08-19T03:59:41;21.60;96.20
240;DHT22;104;53.590;10.004;2022-08-19T04:02:10;21.60;96.20
240;DHT22;104;53.590;10.004;2022-08-19T04:04:39;21.50;96.40
240;DHT22;104;53.590;10.004;2022-08-19T04:07:06;21.50;96.40
240;DHT22;104;53.590;10.004;2022-08-19T04:09:35;21.50;96.10
240;DHT22;104;53.590;10.004;2022-08-19T04:12:04;21.60;95.80
240;DHT22;104;53.590;10.004;2022-08-19T04:14:34;21.60;95.90
240;DHT22;104;53.590;10.004;2022-08-19T04:17:02;21.60;95.90
240;DHT22;104;53.590;10.004;2022-08-19T04:19:30;21.60;95.80
240;DHT22;104;53.590;10.004;2022-08-19T04:21:57;21.70;95.30
240;DHT22;104;53.590;10.004;2022-08-19T04:24:24;21.70;95.10
240;DHT22;104;53.590;10.004;2022-08-19T04:26:52;21.60;95.30
240;DHT22;104;53.590;10.004;2022-08-19T04:29:21;21.60;95.20
240;DHT22;104;53.590;10.004;2022-08-19T04:31:52;21.70;95.60
240;DHT22;104;53.590;10.004;2022-08-19T04:34:22;21.70;96.30
240;DHT22;104;53.590;10.004;2022-08-19T04:36:50;21.70;96.70
240;DHT22;104;53.590;10.004;2022-08-19T04:39:20;21.70;96.60
240;DHT22;104;53.590;10.004;2022-08-19T04:41:48;21.70;96.50
240;DHT22;104;53.590;10.004;2022-08-19T04:44:33;21.70;96.00
240;DHT22;104;53.590;10.004;2022-08-19T04:47:04;21.70;96.70
240;DHT22;104;53.590;10.004;2022-08-19T04:49:32;21.70;96.80
240;DHT22;104;53.590;10.004;2022-08-19T04:51:59;21.60;96.80
240;DHT22;104;53.590;10.004;2022-08-19T04:54:26;21.50;96.80
240;DHT22;104;53.590;10.004;2022-08-19T04:56:53;21.50;96.80
240;DHT22;104;53.590;10.004;2022-08-19T04:59:21;21.60;96.80
240;DHT22;104;53.590;10.004;2022-08-19T05:01:48;21.60;96.80
240;DHT22;104;53.590;10.004;2022-08-19T05:04:18;21.60;96.80
240;DHT22;104;53.590;10.004;2022-08-19T05:06:46;21.70;96.80
240;DHT22;104;53.590;10.004;2022-08-19T05:09:15;21.70;96.80
240;DHT22;104;53.590;10.004;2022-08-19T05:11:43;21.70;96.70
240;DHT22;104;53.590;10.004;2022-08-19T05:14:12;21.80;96.80
240;DHT22;104;53.590;10.004;2022-08-19T05:16:40;21.70;96.80
240;DHT22;104;53.590;10.004;2022-08-19T05:19:07;21.70;96.80
240;DHT22;104;53.590;10.004;2022-08-19T05:21:53;21.70;96.70
240;DHT22;104;53.590;10.004;2022-08-19T05:24:40;21.80;96.00
240;DHT22;104;53.590;10.004;2022-08-19T05:27:07;21.70;96.00
240;DHT22;104;53.590;10.004;2022-08-19T05:29:35;21.70;96.20
240;DHT22;104;53.590;10.004;2022-08-19T05:32:03;21.70;96.50
240;DHT22;104;53.590;10.004;2022-08-19T05:34:34;21.70;96.60
240;DHT22;104;53.590;10.004;2022-08-19T05:37:06;21.70;96.40
240;DHT22;104;53.590;10.004;2022-08-19T05:39:36;21.80;96.10
240;DHT22;104;53.590;10.004;2022-08-19T05:42:06;21.70;96.30
240;DHT22;104;53.590;10.004;2022-08-19T05:44:36;21.70;96.30
240;DHT22;104;53.590;10.004;2022-08-19T05:47:06;21.60;96.50
240;DHT22;104;53.590;10.004;2022-08-19T05:49:34;21.60;96.10
240;DHT22;104;53.590;10.004;2022-08-19T05:52:03;21.60;96.10
240;DHT22;104;53.590;10.004;2022-08-19T05:54:32;21.60;95.90
240;DHT22;104;53.590;10.004;2022-08-19T05:57:01;21.60;96.10
240;DHT22;104;53.590;10.004;2022-08-19T05:59:28;21.50;96.80
240;DHT22;104;53.590;10.004;2022-08-19T06:01:55;21.50;96.70
240;DHT22;104;53.590;10.004;2022-08-19T06:04:22;21.50;96.70
240;DHT22;104;53.590;10.004;2022-08-19T06:06:51;21.60;96.10
240;DHT22;104;53.590;10.004;2022-08-19T06:09:21;21.70;95.30
240;DHT22;104;53.590;10.004;2022-08-19T06:11:51;21.60;95.90
240;DHT22;104;53.590;10.004;2022-08-19T06:14:22;21.60;96.20
240;DHT22;104;53.590;10.004;2022-08-19T06:16:49;21.70;96.10
240;DHT22;104;53.590;10.004;2022-08-19T06:19:20;21.70;96.10
240;DHT22;104;53.590;10.004;2022-08-19T06:21:48;21.50;96.40
240;DHT22;104;53.590;10.004;2022-08-19T06:24:19;21.40;96.80
240;DHT22;104;53.590;10.004;2022-08-19T06:26:50;21.30;96.80
240;DHT22;104;53.590;10.004;2022-08-19T06:29:21;21.30;96.80
240;DHT22;104;53.590;10.004;2022-08-19T06:31:51;21.30;96.80
240;DHT22;104;53.590;10.004;2022-08-19T06:34:19;21.40;96.80
240;DHT22;104;53.590;10.004;2022-08-19T06:36:49;21.40;96.80
240;DHT22;104;53.590;10.004;2022-08-19T06:39:18;21.50;96.80
240;DHT22;104;53.590;10.004;2022-08-19T06:41:49;21.50;96.80
240;DHT22;104;53.590;10.004;2022-08-19T06:44:17;21.50;96.80
240;DHT22;104;53.590;10.004;2022-08-19T06:46:44;21.60;96.80
240;DHT22;104;53.590;10.004;2022-08-19T06:49:11;21.60;96.80
240;DHT22;104;53.590;10.004;2022-08-19T06:51:41;21.60;96.80
240;DHT22;104;53.590;10.004;2022-08-19T06:54:09;21.50;96.70
240;DHT22;104;53.590;10.004;2022-08-19T06:56:37;21.50;96.80
240;DHT22;104;53.590;10.004;2022-08-19T06:59:08;21.60;96.40
240;DHT22;104;53.590;10.004;2022-08-19T07:01:36;21.60;96.60
240;DHT22;104;53.590;10.004;2022-08-19T07:04:05;21.60;96.80
240;DHT22;104;53.590;10.004;2022-08-19T07:06:32;21.60;96.80
240;DHT22;104;53.590;10.004;2022-08-19T07:08:59;21.50;96.80
240;DHT22;104;53.590;10.004;2022-08-19T07:11:26;21.40;96.80
240;DHT22;104;53.590;10.004;2022-08-19T07:13:54;21.40;96.80
240;DHT22;104;53.590;10.004;2022-08-19T07:16:22;21.30;96.80
240;DHT22;104;53.590;10.004;2022-08-19T07:18:50;21.30;96.80
240;DHT22;104;53.590;10.004;2022-08-19T07:21:22;21.30;96.80
240;DHT22;104;53.590;10.004;2022-08-19T07:23:50;21.20;96.80
240;DHT22;104;53.590;10.004;2022-08-19T07:26:20;21.20;96.80
240;DHT22;104;53.590;10.004;2022-08-19T07:28:48;21.30;96.80
240;DHT22;104;53.590;10.004;2022-08-19T07:31:17;21.20;96.80
240;DHT22;104;53.590;10.004;2022-08-19T07:33:47;21.30;96.80
240;DHT22;104;53.590;10.004;2022-08-19T07:36:17;21.30;96.80
240;DHT22;104;53.590;10.004;2022-08-19T07:38:48;21.40;96.80
240;DHT22;104;53.590;10.004;2022-08-19T07:41:20;21.40;96.80
240;DHT22;104;53.590;10.004;2022-08-19T07:43:47;21.40;96.80
240;DHT22;104;53.590;10.004;2022-08-19T07:46:15;21.50;96.80
240;DHT22;104;53.590;10.004;2022-08-19T07:48:44;21.50;96.80
240;DHT22;104;53.590;10.004;2022-08-19T07:51:15;21.50;96.80
240;DHT22;104;53.590;10.004;2022-08-19T07:53:43;21.50;96.80
240;DHT22;104;53.590;10.004;2022-08-19T07:56:12;21.60;96.80
240;DHT22;104;53.590;10.004;2022-08-19T07:58:41;21.70;96.60
240;DHT22;104;53.590;10.004;2022-08-19T08:01:10;21.80;96.30
240;DHT22;104;53.590;10.004;2022-08-19T08:03:39;22.00;95.60
240;DHT22;104;53.590;10.004;2022-08-19T08:06:25;22.10;94.90
240;DHT22;104;53.590;10.004;2022-08-19T08:09:10;22.00;94.70
240;DHT22;104;53.590;10.004;2022-08-19T08:11:42;22.00;94.80
240;DHT22;104;53.590;10.004;2022-08-19T08:14:16;22.10;95.10
240;DHT22;104;53.590;10.004;2022-08-19T08:16:44;22.10;95.00
240;DHT22;104;53.590;10.004;2022-08-19T08:19:11;22.20;94.40
240;DHT22;104;53.590;10.004;2022-08-19T08:21:42;22.30;93.80
240;DHT22;104;53.590;10.004;2022-08-19T08:24:10;22.50;93.50
240;DHT22;104;53.590;10.004;2022-08-19T08:26:38;22.60;92.70
240;DHT22;104;53.590;10.004;2022-08-19T08:29:05;22.90;91.60
240;DHT22;104;53.590;10.004;2022-08-19T08:31:33;22.90;91.40
240;DHT22;104;53.590;10.004;2022-08-19T08:34:03;22.80;92.00
240;DHT22;104;53.590;10.004;2022-08-19T08:36:30;22.90;91.50
240;DHT22;104;53.590;10.004;2022-08-19T08:39:00;23.20;90.20
240;DHT22;104;53.590;10.004;2022-08-19T08:41:33;23.40;89.50
240;DHT22;104;53.590;10.004;2022-08-19T08:44:03;23.40;89.70
240;DHT22;104;53.590;10.004;2022-08-19T08:46:36;23.60;88.40
240;DHT22;104;53.590;10.004;2022-08-19T08:49:15;23.80;87.30
240;DHT22;104;53.590;10.004;2022-08-19T08:51:50;24.00;86.10
240;DHT22;104;53.590;10.004;2022-08-19T08:54:30;23.90;86.50
240;DHT22;104;53.590;10.004;2022-08-19T08:56:57;23.90;86.50
240;DHT22;104;53.590;10.004;2022-08-19T08:59:28;23.70;87.30
240;DHT22;104;53.590;10.004;2022-08-19T09:01:58;23.70;86.50
240;DHT22;104;53.590;10.004;2022-08-19T09:04:25;23.80;86.50
240;DHT22;104;53.590;10.004;2022-08-19T09:06:56;24.00;86.10
240;DHT22;104;53.590;10.004;2022-08-19T09:09:30;24.00;86.00
240;DHT22;104;53.590;10.004;2022-08-19T09:12:05;23.80;86.00
240;DHT22;104;53.590;10.004;2022-08-19T09:14:39;24.00;85.50
240;DHT22;104;53.590;10.004;2022-08-19T09:17:12;23.90;85.80
240;DHT22;104;53.590;10.004;2022-08-19T09:19:53;23.90;85.80
240;DHT22;104;53.590;10.004;2022-08-19T09:22:21;24.00;85.70
240;DHT22;104;53.590;10.004;2022-08-19T09:24:51;23.90;86.00
240;DHT22;104;53.590;10.004;2022-08-19T09:27:19;23.60;87.20
240;DHT22;104;53.590;10.004;2022-08-19T09:29:46;23.40;87.60
240;DHT22;104;53.590;10.004;2022-08-19T09:32:14;23.20;88.40
240;DHT22;104;53.590;10.004;2022-08-19T09:34:41;23.30;88.60
240;DHT22;104;53.590;10.004;2022-08-19T09:37:09;23.30;88.50
240;DHT22;104;53.590;10.004;2022-08-19T09:39:37;23.30;88.30
240;DHT22;104;53.590;10.004;2022-08-19T09:42:08;23.10;89.30
240;DHT22;104;53.590;10.004;2022-08-19T09:44:38;23.10;88.70
240;DHT22;104;53.590;10.004;2022-08-19T09:47:05;23.30;87.50
240;DHT22;104;53.590;10.004;2022-08-19T09:49:33;23.30;86.90
240;DHT22;104;53.590;10.004;2022-08-19T09:52:00;23.30;86.80
240;DHT22;104;53.590;10.004;2022-08-19T09:54:27;23.10;87.90
240;DHT22;104;53.590;10.004;2022-08-19T09:56:57;22.90;88.80
240;DHT22;104;53.590;10.004;2022-08-19T09:59:27;22.90;88.70
240;DHT22;104;53.590;10.004;2022-08-19T10:01:56;22.90;88.30
240;DHT22;104;53.590;10.004;2022-08-19T10:04:23;23.00;88.40
240;DHT22;104;53.590;10.004;2022-08-19T10:07:11;23.10;87.70
240;DHT22;104;53.590;10.004;2022-08-19T10:09:39;23.20;87.70
240;DHT22;104;53.590;10.004;2022-08-19T10:12:08;23.30;87.00
240;DHT22;104;53.590;10.004;2022-08-19T10:14:37;23.20;87.00
240;DHT22;104;53.590;10.004;2022-08-19T10:17:04;23.30;86.50
240;DHT22;104;53.590;10.004;2022-08-19T10:19:32;23.20;86.40
240;DHT22;104;53.590;10.004;2022-08-19T10:22:03;23.20;86.30
240;DHT22;104;53.590;10.004;2022-08-19T10:24:30;23.30;86.00
240;DHT22;104;53.590;10.004;2022-08-19T10:26:57;23.20;86.40
240;DHT22;104;53.590;10.004;2022-08-19T10:29:25;23.30;86.30
240;DHT22;104;53.590;10.004;2022-08-19T10:31:55;23.50;85.60
240;DHT22;104;53.590;10.004;2022-08-19T10:34:22;23.80;84.50
240;DHT22;104;53.590;10.004;2022-08-19T10:36:49;23.80;84.40
240;DHT22;104;53.590;10.004;2022-08-19T10:39:17;24.00;83.60
240;DHT22;104;53.590;10.004;2022-08-19T10:41:44;24.00;83.70
240;DHT22;104;53.590;10.004;2022-08-19T10:44:13;23.80;84.40
240;DHT22;104;53.590;10.004;2022-08-19T10:46:43;23.60;85.10
240;DHT22;104;53.590;10.004;2022-08-19T10:49:12;23.60;84.80
240;DHT22;104;53.590;10.004;2022-08-19T10:51:40;23.60;85.30
240;DHT22;104;53.590;10.004;2022-08-19T10:54:25;23.60;85.00
240;DHT22;104;53.590;10.004;2022-08-19T10:57:13;23.80;84.60
240;DHT22;104;53.590;10.004;2022-08-19T10:59:40;24.00;84.10
240;DHT22;104;53.590;10.004;2022-08-19T11:02:09;24.30;82.80
240;DHT22;104;53.590;10.004;2022-08-19T11:04:39;24.20;82.50
240;DHT22;104;53.590;10.004;2022-08-19T11:07:07;24.10;83.30
240;DHT22;104;53.590;10.004;2022-08-19T11:09:38;24.10;83.70
240;DHT22;104;53.590;10.004;2022-08-19T11:12:06;24.00;83.80
240;DHT22;104;53.590;10.004;2022-08-19T11:14:34;24.10;83.20
240;DHT22;104;53.590;10.004;2022-08-19T11:17:02;24.10;83.50
240;DHT22;104;53.590;10.004;2022-08-19T11:19:30;24.10;83.50
240;DHT22;104;53.590;10.004;2022-08-19T11:22:00;24.10;83.50
240;DHT22;104;53.590;10.004;2022-08-19T11:24:29;23.90;84.30
240;DHT22;104;53.590;10.004;2022-08-19T11:27:02;23.80;84.70
240;DHT22;104;53.590;10.004;2022-08-19T11:29:31;23.70;84.90
240;DHT22;104;53.590;10.004;2022-08-19T11:32:02;23.70;84.60
240;DHT22;104;53.590;10.004;2022-08-19T11:34:30;23.70;85.10
240;DHT22;104;53.590;10.004;2022-08-19T11:36:59;23.70;86.70
240;DHT22;104;53.590;10.004;2022-08-19T11:39:29;23.60;87.50
240;DHT22;104;53.590;10.004;2022-08-19T11:41:58;23.70;88.20
240;DHT22;104;53.590;10.004;2022-08-19T11:44:25;23.60;89.30
240;DHT22;104;53.590;10.004;2022-08-19T11:46:56;23.50;89.50
240;DHT22;104;53.590;10.004;2022-08-19T11:49:23;23.40;89.70
240;DHT22;104;53.590;10.004;2022-08-19T11:51:50;23.50;89.70
240;DHT22;104;53.590;10.004;2022-08-19T11:54:18;23.60;89.50
240;DHT22;104;53.590;10.004;2022-08-19T11:56:45;23.60;90.00
240;DHT22;104;53.590;10.004;2022-08-19T11:59:14;23.60;90.00
240;DHT22;104;53.590;10.004;2022-08-19T12:01:41;23.50;89.30
240;DHT22;104;53.590;10.004;2022-08-19T12:04:09;23.10;91.00
240;DHT22;104;53.590;10.004;2022-08-19T12:06:38;23.00;92.60
240;DHT22;104;53.590;10.004;2022-08-19T12:09:08;23.00;94.60
240;DHT22;104;53.590;10.004;2022-08-19T12:11:37;23.00;93.30
240;DHT22;104;53.590;10.004;2022-08-19T12:14:05;23.00;93.00
240;DHT22;104;53.590;10.004;2022-08-19T12:16:33;23.00;93.10
240;DHT22;104;53.590;10.004;2022-08-19T12:19:03;22.80;93.60
240;DHT22;104;53.590;10.004;2022-08-19T12:21:32;22.70;94.50
240;DHT22;104;53.590;10.004;2022-08-19T12:24:00;22.70;95.10
240;DHT22;104;53.590;10.004;2022-08-19T12:26:28;22.70;95.60
240;DHT22;104;53.590;10.004;2022-08-19T12:28:58;22.60;95.90
240;DHT22;104;53.590;10.004;2022-08-19T12:31:26;22.50;95.30
240;DHT22;104;53.590;10.004;2022-08-19T12:33:53;22.40;96.40
240;DHT22;104;53.590;10.004;2022-08-19T12:36:21;22.30;96.80
240;DHT22;104;53.590;10.004;2022-08-19T12:38:48;22.20;96.80
240;DHT22;104;53.590;10.004;2022-08-19T12:41:17;22.20;96.80
240;DHT22;104;53.590;10.004;2022-08-19T12:43:45;22.50;96.80
240;DHT22;104;53.590;10.004;2022-08-19T12:46:16;22.70;94.50
240;DHT22;104;53.590;10.004;2022-08-19T12:48:43;23.10;93.20
240;DHT22;104;53.590;10.004;2022-08-19T12:51:12;23.30;91.20
240;DHT22;104;53.590;10.004;2022-08-19T12:53:40;23.60;91.60
240;DHT22;104;53.590;10.004;2022-08-19T12:56:07;23.80;90.40
240;DHT22;104;53.590;10.004;2022-08-19T12:58:34;23.60;89.70
240;DHT22;104;53.590;10.004;2022-08-19T13:01:06;23.60;91.10
240;DHT22;104;53.590;10.004;2022-08-19T13:03:35;23.90;89.80
240;DHT22;104;53.590;10.004;2022-08-19T13:06:03;24.10;87.70
240;DHT22;104;53.590;10.004;2022-08-19T13:08:30;23.90;88.70
240;DHT22;104;53.590;10.004;2022-08-19T13:10:57;23.80;89.60
240;DHT22;104;53.590;10.004;2022-08-19T13:13:25;24.00;89.50
240;DHT22;104;53.590;10.004;2022-08-19T13:15:52;24.10;89.60
240;DHT22;104;53.590;10.004;2022-08-19T13:18:27;24.00;89.10
240;DHT22;104;53.590;10.004;2022-08-19T13:20:55;23.80;90.00
240;DHT22;104;53.590;10.004;2022-08-19T13:23:22;23.70;90.20
240;DHT22;104;53.590;10.004;2022-08-19T13:25:56;23.60;90.50
240;DHT22;104;53.590;10.004;2022-08-19T13:28:23;23.50;91.00
240;DHT22;104;53.590;10.004;2022-08-19T13:30:51;23.50;91.40
240;DHT22;104;53.590;10.004;2022-08-19T13:33:36;23.50;91.70
240;DHT22;104;53.590;10.004;2022-08-19T13:36:05;23.60;92.60
240;DHT22;104;53.590;10.004;2022-08-19T13:38:33;23.60;92.40
240;DHT22;104;53.590;10.004;2022-08-19T13:41:05;23.60;93.00
240;DHT22;104;53.590;10.004;2022-08-19T13:43:33;23.50;93.50
240;DHT22;104;53.590;10.004;2022-08-19T13:46:11;23.30;94.40
240;DHT22;104;53.590;10.004;2022-08-19T13:52:14;23.80;93.60
240;DHT22;104;53.590;10.004;2022-08-19T13:55:23;24.50;92.40
240;DHT22;104;53.590;10.004;2022-08-19T13:58:00;25.00;89.30
240;DHT22;104;53.590;10.004;2022-08-19T14:00:36;25.20;88.60
240;DHT22;104;53.590;10.004;2022-08-19T14:03:13;25.50;88.00
240;DHT22;104;53.590;10.004;2022-08-19T14:05:46;25.80;86.80
240;DHT22;104;53.590;10.004;2022-08-19T14:08:15;26.00;84.20
240;DHT22;104;53.590;10.004;2022-08-19T14:10:42;26.10;84.60
240;DHT22;104;53.590;10.004;2022-08-19T14:13:13;26.20;84.00
240;DHT22;104;53.590;10.004;2022-08-19T14:15:41;26.30;83.70
240;DHT22;104;53.590;10.004;2022-08-19T14:18:08;26.50;83.80
240;DHT22;104;53.590;10.004;2022-08-19T14:20:36;26.60;82.10
240;DHT22;104;53.590;10.004;2022-08-19T14:23:04;26.20;83.30
240;DHT22;104;53.590;10.004;2022-08-19T14:25:36;26.10;83.10
240;DHT22;104;53.590;10.004;2022-08-19T14:28:04;25.80;83.90
240;DHT22;104;53.590;10.004;2022-08-19T14:30:34;25.80;84.60
240;DHT22;104;53.590;10.004;2022-08-19T14:33:04;25.70;84.50
240;DHT22;104;53.590;10.004;2022-08-19T14:35:33;26.00;84.20
240;DHT22;104;53.590;10.004;2022-08-19T14:38:01;26.10;83.80
240;DHT22;104;53.590;10.004;2022-08-19T14:40:29;26.00;83.90
240;DHT22;104;53.590;10.004;2022-08-19T14:43:00;25.60;83.80
240;DHT22;104;53.590;10.004;2022-08-19T14:45:31;25.40;84.30
240;DHT22;104;53.590;10.004;2022-08-19T14:47:58;25.10;84.60
240;DHT22;104;53.590;10.004;2022-08-19T14:50:26;24.90;84.40
240;DHT22;104;53.590;10.004;2022-08-19T14:52:58;24.80;84.70
240;DHT22;104;53.590;10.004;2022-08-19T14:55:26;24.80;84.90
240;DHT22;104;53.590;10.004;2022-08-19T14:57:54;24.80;85.50
240;DHT22;104;53.590;10.004;2022-08-19T15:00:23;24.70;86.10
240;DHT22;104;53.590;10.004;2022-08-19T15:02:50;24.60;85.70
240;DHT22;104;53.590;10.004;2022-08-19T15:05:19;24.60;86.30
240;DHT22;104;53.590;10.004;2022-08-19T15:07:46;24.70;86.00
240;DHT22;104;53.590;10.004;2022-08-19T15:10:14;24.90;84.90
240;DHT22;104;53.590;10.004;2022-08-19T15:12:42;25.00;84.40
240;DHT22;104;53.590;10.004;2022-08-19T15:15:13;25.10;84.80
240;DHT22;104;53.590;10.004;2022-08-19T15:17:44;25.10;83.40
240;DHT22;104;53.590;10.004;2022-08-19T15:20:14;25.10;83.30
240;DHT22;104;53.590;10.004;2022-08-19T15:22:41;25.10;83.00
240;DHT22;104;53.590;10.004;2022-08-19T15:25:12;24.80;83.00
240;DHT22;104;53.590;10.004;2022-08-19T15:27:40;24.50;83.80
240;DHT22;104;53.590;10.004;2022-08-19T15:30:08;24.40;84.50
240;DHT22;104;53.590;10.004;2022-08-19T15:32:36;24.50;84.70
240;DHT22;104;53.590;10.004;2022-08-19T15:35:06;24.60;84.40
240;DHT22;104;53.590;10.004;2022-08-19T15:37:33;24.60;84.20
240;DHT22;104;53.590;10.004;2022-08-19T15:40:02;24.60;84.00
240;DHT22;104;53.590;10.004;2022-08-19T15:42:29;24.60;84.30
240;DHT22;104;53.590;10.004;2022-08-19T15:44:57;24.60;84.50
240;DHT22;104;53.590;10.004;2022-08-19T15:47:23;24.40;85.30
240;DHT22;104;53.590;10.004;2022-08-19T15:49:51;24.20;85.90
240;DHT22;104;53.590;10.004;2022-08-19T15:52:20;24.00;86.80
240;DHT22;104;53.590;10.004;2022-08-19T15:54:48;23.90;87.50
240;DHT22;104;53.590;10.004;2022-08-19T15:57:15;23.90;87.90
240;DHT22;104;53.590;10.004;2022-08-19T15:59:59;23.90;88.10
240;DHT22;104;53.590;10.004;2022-08-19T16:02:43;24.10;87.70
240;DHT22;104;53.590;10.004;2022-08-19T16:05:28;24.10;87.30
240;DHT22;104;53.590;10.004;2022-08-19T16:08:13;24.10;87.70
240;DHT22;104;53.590;10.004;2022-08-19T16:10:40;24.10;87.70
240;DHT22;104;53.590;10.004;2022-08-19T16:13:07;23.90;88.40
240;DHT22;104;53.590;10.004;2022-08-19T16:15:35;23.80;88.90
240;DHT22;104;53.590;10.004;2022-08-19T16:18:02;23.70;89.60
240;DHT22;104;53.590;10.004;2022-08-19T16:20:30;23.70;89.60
240;DHT22;104;53.590;10.004;2022-08-19T16:22:58;23.60;90.30
240;DHT22;104;53.590;10.004;2022-08-19T16:25:27;23.60;90.30
240;DHT22;104;53.590;10.004;2022-08-19T16:27:54;23.70;90.70
240;DHT22;104;53.590;10.004;2022-08-19T16:30:21;23.60;91.50
240;DHT22;104;53.590;10.004;2022-08-19T16:32:48;23.60;91.70
240;DHT22;104;53.590;10.004;2022-08-19T16:35:15;23.40;92.50